sensor_id;sensor_type;location;lat;lon;timestamp;P1;durP1;ratioP1;P2;durP2;ratioP2
6141;SDS011;71289;51.552;6.210;2023-11-19T00:02:11;18.83;;;9.57;;
6141;SDS011;71289;51.552;6.210;2023-11-19T00:04:37;27.47;;;10.60;;
6141;SDS011;71289;51.552;6.210;2023-11-19T00:07:04;15.73;;;9.43;;
6141;SDS011;71289;51.552;6.210;2023-11-19T00:09:31;19.53;;;11.07;;
6141;SDS011;71289;51.552;6.210;2023-11-19T00:11:57;16.30;;;11.00;;
6141;SDS011;71289;51.552;6.210;2023-11-19T00:14:25;17.80;;;9.67;;
6141;SDS011;71289;51.552;6.210;2023-11-19T00:16:51;16.47;;;9.77;;
6141;SDS011;71289;51.552;6.210;2023-11-19T00:19:16;18.20;;;10.97;;
6141;SDS011;71289;51.552;6.210;2023-11-19T00:21:42;14.40;;;9.23;;
6141;SDS011;71289;51.552;6.210;2023-11-19T00:24:08;16.30;;;9.53;;
6141;SDS011;71289;51.552;6.210;2023-11-19T00:26:33;17.70;;;11.23;;
6141;SDS011;71289;51.552;6.210;2023-11-19T00:28:59;17.20;;;10.57;;
6141;SDS011;71289;51.552;6.210;2023-11-19T00:31:25;12.10;;;7.97;;
6141;SDS011;71289;51.552;6.210;2023-11-19T00:33:53;13.40;;;9.00;;
6141;SDS011;71289;51.552;6.210;2023-11-19T00:36:19;16.80;;;9.87;;
6141;SDS011;71289;51.552;6.210;2023-11-19T00:38:45;16.10;;;10.70;;
6141;SDS011;71289;51.552;6.210;2023-11-19T00:41:11;14.47;;;9.40;;
6141;SDS011;71289;51.552;6.210;2023-11-19T00:43:36;19.13;;;10.00;;
6141;SDS011;71289;51.552;6.210;2023-11-19T00:46:02;14.13;;;8.70;;
6141;SDS011;71289;51.552;6.210;2023-11-19T00:48:29;14.67;;;8.80;;
6141;SDS011;71289;51.552;6.210;2023-11-19T00:50:54;12.20;;;7.83;;
6141;SDS011;71289;51.552;6.210;2023-11-19T00:53:20;14.17;;;7.17;;
6141;SDS011;71289;51.552;6.210;2023-11-19T00:55:45;9.47;;;7.03;;
6141;SDS011;71289;51.552;6.210;2023-11-19T00:58:11;11.77;;;7.87;;
6141;SDS011;71289;51.552;6.210;2023-11-19T01:00:36;14.40;;;7.33;;
6141;SDS011;71289;51.552;6.210;2023-11-19T01:03:02;10.23;;;6.17;;
6141;SDS011;71289;51.552;6.210;2023-11-19T01:05:27;11.80;;;6.70;;
6141;SDS011;71289;51.552;6.210;2023-11-19T01:07:53;7.90;;;6.47;;
6141;SDS011;71289;51.552;6.210;2023-11-19T01:10:19;7.53;;;5.40;;
6141;SDS011;71289;51.552;6.210;2023-11-19T01:12:45;12.33;;;6.80;;
6141;SDS011;71289;51.552;6.210;2023-11-19T01:15:11;15.60;;;7.30;;
6141;SDS011;71289;51.552;6.210;2023-11-19T01:17:38;11.97;;;6.00;;
6141;SDS011;71289;51.552;6.210;2023-11-19T01:20:04;12.63;;;6.57;;
6141;SDS011;71289;51.552;6.210;2023-11-19T01:22:31;11.53;;;7.00;;
6141;SDS011;71289;51.552;6.210;2023-11-19T01:24:57;9.83;;;7.17;;
6141;SDS011;71289;51.552;6.210;2023-11-19T01:27:23;9.00;;;6.67;;
6141;SDS011;71289;51.552;6.210;2023-11-19T01:29:49;10.70;;;5.53;;
6141;SDS011;71289;51.552;6.210;2023-11-19T01:32:15;17.73;;;6.50;;
6141;SDS011;71289;51.552;6.210;2023-11-19T01:34:40;10.43;;;6.20;;
6141;SDS011;71289;51.552;6.210;2023-11-19T01:37:06;9.90;;;5.83;;
6141;SDS011;71289;51.552;6.210;2023-11-19T01:39:34;8.00;;;5.93;;
6141;SDS011;71289;51.552;6.210;2023-11-19T01:41:59;9.23;;;5.00;;
6141;SDS011;71289;51.552;6.210;2023-11-19T01:44:25;6.10;;;5.33;;
6141;SDS011;71289;51.552;6.210;2023-11-19T01:46:51;6.43;;;5.07;;
6141;SDS011;71289;51.552;6.210;2023-11-19T01:49:17;8.57;;;5.70;;
6141;SDS011;71289;51.552;6.210;2023-11-19T01:51:44;6.10;;;4.83;;
6141;SDS011;71289;51.552;6.210;2023-11-19T01:54:12;7.20;;;4.57;;
6141;SDS011;71289;51.552;6.210;2023-11-19T01:56:38;7.27;;;5.03;;
6141;SDS011;71289;51.552;6.210;2023-11-19T01:59:05;8.47;;;4.63;;
6141;SDS011;71289;51.552;6.210;2023-11-19T02:01:32;10.17;;;5.67;;
6141;SDS011;71289;51.552;6.210;2023-11-19T02:04:03;13.17;;;5.13;;
6141;SDS011;71289;51.552;6.210;2023-11-19T02:06:29;6.20;;;4.90;;
6141;SDS011;71289;51.552;6.210;2023-11-19T02:08:56;8.57;;;4.47;;
6141;SDS011;71289;51.552;6.210;2023-11-19T02:11:22;6.30;;;3.40;;
6141;SDS011;71289;51.552;6.210;2023-11-19T02:13:47;5.43;;;4.20;;
6141;SDS011;71289;51.552;6.210;2023-11-19T02:16:13;4.53;;;3.67;;
6141;SDS011;71289;51.552;6.210;2023-11-19T02:18:39;7.50;;;3.30;;
6141;SDS011;71289;51.552;6.210;2023-11-19T02:21:04;6.43;;;3.10;;
6141;SDS011;71289;51.552;6.210;2023-11-19T02:23:30;5.70;;;3.13;;
6141;SDS011;71289;51.552;6.210;2023-11-19T02:28:34;8.00;;;3.20;;
6141;SDS011;71289;51.552;6.210;2023-11-19T02:31:02;6.90;;;3.53;;
6141;SDS011;71289;51.552;6.210;2023-11-19T02:33:30;6.03;;;2.00;;
6141;SDS011;71289;51.552;6.210;2023-11-19T02:35:55;9.50;;;3.00;;
6141;SDS011;71289;51.552;6.210;2023-11-19T02:38:21;6.17;;;2.33;;
6141;SDS011;71289;51.552;6.210;2023-11-19T02:40:47;5.73;;;2.70;;
6141;SDS011;71289;51.552;6.210;2023-11-19T02:43:13;3.07;;;2.77;;
6141;SDS011;71289;51.552;6.210;2023-11-19T02:45:38;3.70;;;2.80;;
6141;SDS011;71289;51.552;6.210;2023-11-19T02:48:04;3.73;;;2.93;;
6141;SDS011;71289;51.552;6.210;2023-11-19T02:50:31;11.23;;;2.60;;
6141;SDS011;71289;51.552;6.210;2023-11-19T02:52:57;6.27;;;2.90;;
6141;SDS011;71289;51.552;6.210;2023-11-19T02:55:22;8.80;;;2.60;;
6141;SDS011;71289;51.552;6.210;2023-11-19T02:57:49;5.27;;;3.13;;
6141;SDS011;71289;51.552;6.210;2023-11-19T03:00:15;6.30;;;2.53;;
6141;SDS011;71289;51.552;6.210;2023-11-19T03:02:42;9.20;;;2.60;;
6141;SDS011;71289;51.552;6.210;2023-11-19T03:05:13;9.67;;;2.60;;
6141;SDS011;71289;51.552;6.210;2023-11-19T03:07:40;10.07;;;3.50;;
6141;SDS011;71289;51.552;6.210;2023-11-19T03:10:07;5.43;;;2.90;;
6141;SDS011;71289;51.552;6.210;2023-11-19T03:12:34;10.70;;;2.30;;
6141;SDS011;71289;51.552;6.210;2023-11-19T03:14:59;5.60;;;2.60;;
6141;SDS011;71289;51.552;6.210;2023-11-19T03:17:25;7.47;;;2.83;;
6141;SDS011;71289;51.552;6.210;2023-11-19T03:19:50;8.00;;;3.00;;
6141;SDS011;71289;51.552;6.210;2023-11-19T03:22:16;10.57;;;3.73;;
6141;SDS011;71289;51.552;6.210;2023-11-19T03:24:41;17.10;;;2.60;;
6141;SDS011;71289;51.552;6.210;2023-11-19T03:27:07;13.03;;;3.40;;
6141;SDS011;71289;51.552;6.210;2023-11-19T03:29:32;10.57;;;3.53;;
6141;SDS011;71289;51.552;6.210;2023-11-19T03:31:58;14.13;;;2.30;;
6141;SDS011;71289;51.552;6.210;2023-11-19T03:34:23;15.30;;;3.50;;
6141;SDS011;71289;51.552;6.210;2023-11-19T03:36:49;4.57;;;2.03;;
6141;SDS011;71289;51.552;6.210;2023-11-19T03:39:14;8.63;;;2.70;;
6141;SDS011;71289;51.552;6.210;2023-11-19T03:41:40;6.47;;;2.30;;
6141;SDS011;71289;51.552;6.210;2023-11-19T03:44:05;6.47;;;2.80;;
6141;SDS011;71289;51.552;6.210;2023-11-19T03:46:31;9.97;;;3.50;;
6141;SDS011;71289;51.552;6.210;2023-11-19T03:48:56;4.50;;;2.63;;
6141;SDS011;71289;51.552;6.210;2023-11-19T03:51:22;14.57;;;3.50;;
6141;SDS011;71289;51.552;6.210;2023-11-19T03:53:47;8.67;;;2.70;;
6141;SDS011;71289;51.552;6.210;2023-11-19T03:56:13;11.07;;;2.60;;
6141;SDS011;71289;51.552;6.210;2023-11-19T03:58:39;7.80;;;2.93;;
6141;SDS011;71289;51.552;6.210;2023-11-19T04:01:05;14.27;;;3.70;;
6141;SDS011;71289;51.552;6.210;2023-11-19T04:03:31;6.40;;;1.57;;
6141;SDS011;71289;51.552;6.210;2023-11-19T04:05:56;5.07;;;1.87;;
6141;SDS011;71289;51.552;6.210;2023-11-19T04:08:22;12.33;;;2.47;;
6141;SDS011;71289;51.552;6.210;2023-11-19T04:10:48;25.10;;;3.93;;
6141;SDS011;71289;51.552;6.210;2023-11-19T04:13:13;18.23;;;2.67;;
6141;SDS011;71289;51.552;6.210;2023-11-19T04:15:39;17.63;;;2.87;;
6141;SDS011;71289;51.552;6.210;2023-11-19T04:18:05;23.23;;;2.40;;
6141;SDS011;71289;51.552;6.210;2023-11-19T04:20:30;10.83;;;2.23;;
6141;SDS011;71289;51.552;6.210;2023-11-19T04:22:56;19.93;;;2.80;;
6141;SDS011;71289;51.552;6.210;2023-11-19T04:25:22;15.30;;;4.00;;
6141;SDS011;71289;51.552;6.210;2023-11-19T04:27:49;3.57;;;1.43;;
6141;SDS011;71289;51.552;6.210;2023-11-19T04:30:14;10.43;;;2.70;;
6141;SDS011;71289;51.552;6.210;2023-11-19T04:32:40;21.60;;;2.97;;
6141;SDS011;71289;51.552;6.210;2023-11-19T04:35:06;15.73;;;3.20;;
6141;SDS011;71289;51.552;6.210;2023-11-19T04:37:32;7.27;;;2.37;;
6141;SDS011;71289;51.552;6.210;2023-11-19T04:39:57;17.47;;;4.23;;
6141;SDS011;71289;51.552;6.210;2023-11-19T04:42:24;11.73;;;2.47;;
6141;SDS011;71289;51.552;6.210;2023-11-19T04:44:50;7.30;;;3.80;;
6141;SDS011;71289;51.552;6.210;2023-11-19T04:47:16;13.50;;;3.20;;
6141;SDS011;71289;51.552;6.210;2023-11-19T04:49:41;6.30;;;1.97;;
6141;SDS011;71289;51.552;6.210;2023-11-19T04:52:10;13.90;;;3.53;;
6141;SDS011;71289;51.552;6.210;2023-11-19T04:54:40;8.87;;;2.97;;
6141;SDS011;71289;51.552;6.210;2023-11-19T04:57:07;17.30;;;2.50;;
6141;SDS011;71289;51.552;6.210;2023-11-19T04:59:34;16.57;;;3.63;;
6141;SDS011;71289;51.552;6.210;2023-11-19T05:02:00;25.00;;;2.40;;
6141;SDS011;71289;51.552;6.210;2023-11-19T05:04:25;5.60;;;2.73;;
6141;SDS011;71289;51.552;6.210;2023-11-19T05:06:51;16.90;;;2.20;;
6141;SDS011;71289;51.552;6.210;2023-11-19T05:09:16;11.20;;;3.47;;
6141;SDS011;71289;51.552;6.210;2023-11-19T05:11:43;12.50;;;2.33;;
6141;SDS011;71289;51.552;6.210;2023-11-19T05:14:08;16.43;;;4.00;;
6141;SDS011;71289;51.552;6.210;2023-11-19T05:16:34;14.87;;;3.07;;
6141;SDS011;71289;51.552;6.210;2023-11-19T05:19:00;8.03;;;2.93;;
6141;SDS011;71289;51.552;6.210;2023-11-19T05:21:25;8.43;;;2.57;;
6141;SDS011;71289;51.552;6.210;2023-11-19T05:23:51;18.43;;;3.60;;
6141;SDS011;71289;51.552;6.210;2023-11-19T05:26:17;14.90;;;3.13;;
6141;SDS011;71289;51.552;6.210;2023-11-19T05:28:44;9.07;;;2.90;;
6141;SDS011;71289;51.552;6.210;2023-11-19T05:31:10;11.10;;;2.53;;
6141;SDS011;71289;51.552;6.210;2023-11-19T05:33:35;11.33;;;2.50;;
6141;SDS011;71289;51.552;6.210;2023-11-19T05:36:01;11.50;;;3.93;;
6141;SDS011;71289;51.552;6.210;2023-11-19T05:38:28;5.07;;;2.80;;
6141;SDS011;71289;51.552;6.210;2023-11-19T05:40:54;9.57;;;3.37;;
6141;SDS011;71289;51.552;6.210;2023-11-19T05:43:20;13.03;;;3.17;;
6141;SDS011;71289;51.552;6.210;2023-11-19T05:45:46;7.93;;;3.40;;
6141;SDS011;71289;51.552;6.210;2023-11-19T05:48:11;22.63;;;4.23;;
6141;SDS011;71289;51.552;6.210;2023-11-19T05:50:37;14.30;;;4.93;;
6141;SDS011;71289;51.552;6.210;2023-11-19T05:53:03;13.07;;;2.93;;
6141;SDS011;71289;51.552;6.210;2023-11-19T05:55:33;11.53;;;2.70;;
6141;SDS011;71289;51.552;6.210;2023-11-19T05:57:59;10.43;;;2.83;;
6141;SDS011;71289;51.552;6.210;2023-11-19T06:00:25;17.53;;;3.57;;
6141;SDS011;71289;51.552;6.210;2023-11-19T06:02:51;11.20;;;2.60;;
6141;SDS011;71289;51.552;6.210;2023-11-19T06:05:17;19.43;;;3.40;;
6141;SDS011;71289;51.552;6.210;2023-11-19T06:07:43;19.10;;;4.37;;
6141;SDS011;71289;51.552;6.210;2023-11-19T06:10:08;10.40;;;3.03;;
6141;SDS011;71289;51.552;6.210;2023-11-19T06:12:39;15.10;;;3.57;;
6141;SDS011;71289;51.552;6.210;2023-11-19T06:15:06;18.13;;;3.90;;
6141;SDS011;71289;51.552;6.210;2023-11-19T06:17:33;5.40;;;2.60;;
6141;SDS011;71289;51.552;6.210;2023-11-19T06:19:59;19.73;;;3.90;;
6141;SDS011;71289;51.552;6.210;2023-11-19T06:22:24;14.23;;;3.13;;
6141;SDS011;71289;51.552;6.210;2023-11-19T06:24:50;18.40;;;2.90;;
6141;SDS011;71289;51.552;6.210;2023-11-19T06:27:15;9.73;;;3.07;;
6141;SDS011;71289;51.552;6.210;2023-11-19T06:29:41;12.33;;;3.03;;
6141;SDS011;71289;51.552;6.210;2023-11-19T06:32:07;19.33;;;2.97;;
6141;SDS011;71289;51.552;6.210;2023-11-19T06:34:33;13.67;;;4.17;;
6141;SDS011;71289;51.552;6.210;2023-11-19T06:36:59;13.43;;;2.63;;
6141;SDS011;71289;51.552;6.210;2023-11-19T06:39:24;18.03;;;4.60;;
6141;SDS011;71289;51.552;6.210;2023-11-19T06:41:50;10.30;;;2.37;;
6141;SDS011;71289;51.552;6.210;2023-11-19T06:44:16;9.00;;;3.10;;
6141;SDS011;71289;51.552;6.210;2023-11-19T06:46:42;14.60;;;3.50;;
6141;SDS011;71289;51.552;6.210;2023-11-19T06:49:08;9.53;;;2.73;;
6141;SDS011;71289;51.552;6.210;2023-11-19T06:51:34;14.80;;;4.20;;
6141;SDS011;71289;51.552;6.210;2023-11-19T06:53:59;14.20;;;2.23;;
6141;SDS011;71289;51.552;6.210;2023-11-19T06:56:25;7.80;;;2.60;;
6141;SDS011;71289;51.552;6.210;2023-11-19T06:58:50;10.03;;;2.50;;
6141;SDS011;71289;51.552;6.210;2023-11-19T07:01:17;11.23;;;2.87;;
6141;SDS011;71289;51.552;6.210;2023-11-19T07:03:44;15.33;;;3.00;;
6141;SDS011;71289;51.552;6.210;2023-11-19T07:06:10;10.20;;;2.50;;
6141;SDS011;71289;51.552;6.210;2023-11-19T07:08:35;16.30;;;2.83;;
6141;SDS011;71289;51.552;6.210;2023-11-19T07:11:01;19.07;;;5.03;;
6141;SDS011;71289;51.552;6.210;2023-11-19T07:13:27;13.00;;;3.97;;
6141;SDS011;71289;51.552;6.210;2023-11-19T07:15:53;6.40;;;2.33;;
6141;SDS011;71289;51.552;6.210;2023-11-19T07:18:20;14.90;;;2.57;;
6141;SDS011;71289;51.552;6.210;2023-11-19T07:20:49;18.60;;;3.63;;
6141;SDS011;71289;51.552;6.210;2023-11-19T07:23:14;14.40;;;2.40;;
6141;SDS011;71289;51.552;6.210;2023-11-19T07:25:42;12.93;;;2.37;;
6141;SDS011;71289;51.552;6.210;2023-11-19T07:28:09;19.33;;;2.57;;
6141;SDS011;71289;51.552;6.210;2023-11-19T07:30:35;15.83;;;3.50;;
6141;SDS011;71289;51.552;6.210;2023-11-19T07:33:01;8.43;;;2.23;;
6141;SDS011;71289;51.552;6.210;2023-11-19T07:35:28;21.60;;;3.80;;
6141;SDS011;71289;51.552;6.210;2023-11-19T07:37:55;16.97;;;4.00;;
6141;SDS011;71289;51.552;6.210;2023-11-19T07:40:22;6.90;;;2.53;;
6141;SDS011;71289;51.552;6.210;2023-11-19T07:42:48;12.80;;;2.33;;
6141;SDS011;71289;51.552;6.210;2023-11-19T07:45:13;7.87;;;2.80;;
6141;SDS011;71289;51.552;6.210;2023-11-19T07:47:39;13.20;;;3.30;;
6141;SDS011;71289;51.552;6.210;2023-11-19T07:50:05;11.37;;;3.23;;
6141;SDS011;71289;51.552;6.210;2023-11-19T07:52:30;19.20;;;3.90;;
6141;SDS011;71289;51.552;6.210;2023-11-19T07:54:56;14.60;;;2.57;;
6141;SDS011;71289;51.552;6.210;2023-11-19T07:57:22;6.80;;;2.57;;
6141;SDS011;71289;51.552;6.210;2023-11-19T07:59:49;11.57;;;3.30;;
6141;SDS011;71289;51.552;6.210;2023-11-19T08:02:14;9.67;;;4.07;;
6141;SDS011;71289;51.552;6.210;2023-11-19T08:04:40;10.37;;;2.73;;
6141;SDS011;71289;51.552;6.210;2023-11-19T08:07:09;17.13;;;3.70;;
6141;SDS011;71289;51.552;6.210;2023-11-19T08:09:36;17.70;;;3.27;;
6141;SDS011;71289;51.552;6.210;2023-11-19T08:12:02;13.27;;;2.63;;
6141;SDS011;71289;51.552;6.210;2023-11-19T08:14:28;10.23;;;2.47;;
6141;SDS011;71289;51.552;6.210;2023-11-19T08:16:54;16.37;;;3.03;;
6141;SDS011;71289;51.552;6.210;2023-11-19T08:19:19;10.60;;;2.80;;
6141;SDS011;71289;51.552;6.210;2023-11-19T08:21:45;15.37;;;3.90;;
6141;SDS011;71289;51.552;6.210;2023-11-19T08:24:10;21.80;;;3.83;;
6141;SDS011;71289;51.552;6.210;2023-11-19T08:26:36;13.07;;;3.83;;
6141;SDS011;71289;51.552;6.210;2023-11-19T08:29:01;18.60;;;5.30;;
6141;SDS011;71289;51.552;6.210;2023-11-19T08:31:28;19.60;;;4.27;;
6141;SDS011;71289;51.552;6.210;2023-11-19T08:33:53;19.90;;;4.53;;
6141;SDS011;71289;51.552;6.210;2023-11-19T08:36:19;14.83;;;3.23;;
6141;SDS011;71289;51.552;6.210;2023-11-19T08:38:44;16.43;;;4.00;;
6141;SDS011;71289;51.552;6.210;2023-11-19T08:41:10;8.23;;;3.03;;
6141;SDS011;71289;51.552;6.210;2023-11-19T08:43:35;7.90;;;3.30;;
6141;SDS011;71289;51.552;6.210;2023-11-19T08:46:01;10.50;;;2.33;;
6141;SDS011;71289;51.552;6.210;2023-11-19T08:48:27;14.80;;;4.90;;
6141;SDS011;71289;51.552;6.210;2023-11-19T08:50:52;6.97;;;2.93;;
6141;SDS011;71289;51.552;6.210;2023-11-19T08:53:18;24.50;;;3.03;;
6141;SDS011;71289;51.552;6.210;2023-11-19T08:55:43;17.57;;;2.93;;
6141;SDS011;71289;51.552;6.210;2023-11-19T08:58:09;12.77;;;3.10;;
6141;SDS011;71289;51.552;6.210;2023-11-19T09:00:34;11.90;;;2.20;;
6141;SDS011;71289;51.552;6.210;2023-11-19T09:03:00;22.20;;;3.37;;
6141;SDS011;71289;51.552;6.210;2023-11-19T09:05:25;14.73;;;2.43;;
6141;SDS011;71289;51.552;6.210;2023-11-19T09:07:51;12.83;;;2.53;;
6141;SDS011;71289;51.552;6.210;2023-11-19T09:10:17;7.00;;;2.00;;
6141;SDS011;71289;51.552;6.210;2023-11-19T09:12:43;17.77;;;3.97;;
6141;SDS011;71289;51.552;6.210;2023-11-19T09:15:08;11.33;;;2.17;;
6141;SDS011;71289;51.552;6.210;2023-11-19T09:17:35;8.20;;;2.03;;
6141;SDS011;71289;51.552;6.210;2023-11-19T09:20:01;14.33;;;2.40;;
6141;SDS011;71289;51.552;6.210;2023-11-19T09:22:26;7.87;;;2.40;;
6141;SDS011;71289;51.552;6.210;2023-11-19T09:24:52;6.47;;;2.40;;
6141;SDS011;71289;51.552;6.210;2023-11-19T09:27:17;16.57;;;3.37;;
6141;SDS011;71289;51.552;6.210;2023-11-19T09:29:43;7.27;;;2.33;;
6141;SDS011;71289;51.552;6.210;2023-11-19T09:32:10;9.30;;;2.80;;
6141;SDS011;71289;51.552;6.210;2023-11-19T09:34:36;14.30;;;3.13;;
6141;SDS011;71289;51.552;6.210;2023-11-19T09:37:01;17.80;;;2.00;;
6141;SDS011;71289;51.552;6.210;2023-11-19T09:39:28;8.27;;;2.40;;
6141;SDS011;71289;51.552;6.210;2023-11-19T09:41:53;18.53;;;2.67;;
6141;SDS011;71289;51.552;6.210;2023-11-19T09:44:19;13.90;;;3.73;;
6141;SDS011;71289;51.552;6.210;2023-11-19T09:46:44;17.00;;;3.60;;
6141;SDS011;71289;51.552;6.210;2023-11-19T09:49:11;26.13;;;3.47;;
6141;SDS011;71289;51.552;6.210;2023-11-19T09:51:38;9.83;;;3.00;;
6141;SDS011;71289;51.552;6.210;2023-11-19T09:54:03;11.40;;;3.50;;
6141;SDS011;71289;51.552;6.210;2023-11-19T09:56:29;13.60;;;2.37;;
6141;SDS011;71289;51.552;6.210;2023-11-19T09:58:55;11.33;;;2.63;;
6141;SDS011;71289;51.552;6.210;2023-11-19T10:01:21;17.33;;;5.17;;
6141;SDS011;71289;51.552;6.210;2023-11-19T10:03:47;16.83;;;3.03;;
6141;SDS011;71289;51.552;6.210;2023-11-19T10:06:14;31.27;;;4.00;;
6141;SDS011;71289;51.552;6.210;2023-11-19T10:08:41;20.53;;;2.73;;
6141;SDS011;71289;51.552;6.210;2023-11-19T10:11:08;13.93;;;2.10;;
6141;SDS011;71289;51.552;6.210;2023-11-19T10:13:35;28.23;;;2.87;;
6141;SDS011;71289;51.552;6.210;2023-11-19T10:16:07;8.80;;;2.63;;
6141;SDS011;71289;51.552;6.210;2023-11-19T10:18:46;9.00;;;4.03;;
6141;SDS011;71289;51.552;6.210;2023-11-19T10:21:15;13.80;;;4.70;;
6141;SDS011;71289;51.552;6.210;2023-11-19T10:26:16;5.50;;;2.33;;
6141;SDS011;71289;51.552;6.210;2023-11-19T10:28:42;18.90;;;3.80;;
6141;SDS011;71289;51.552;6.210;2023-11-19T10:31:11;8.07;;;3.27;;
6141;SDS011;71289;51.552;6.210;2023-11-19T10:33:40;9.13;;;2.30;;
6141;SDS011;71289;51.552;6.210;2023-11-19T10:36:06;15.63;;;2.70;;
6141;SDS011;71289;51.552;6.210;2023-11-19T10:38:32;18.03;;;2.80;;
6141;SDS011;71289;51.552;6.210;2023-11-19T10:40:58;12.03;;;2.73;;
6141;SDS011;71289;51.552;6.210;2023-11-19T10:43:24;10.43;;;3.07;;
6141;SDS011;71289;51.552;6.210;2023-11-19T10:45:50;6.30;;;2.33;;
6141;SDS011;71289;51.552;6.210;2023-11-19T10:48:16;13.97;;;2.80;;
6141;SDS011;71289;51.552;6.210;2023-11-19T10:50:43;8.43;;;2.03;;
6141;SDS011;71289;51.552;6.210;2023-11-19T10:53:10;8.93;;;3.50;;
6141;SDS011;71289;51.552;6.210;2023-11-19T10:55:38;13.30;;;2.47;;
6141;SDS011;71289;51.552;6.210;2023-11-19T10:58:07;12.90;;;3.47;;
6141;SDS011;71289;51.552;6.210;2023-11-19T11:00:38;8.40;;;2.53;;
6141;SDS011;71289;51.552;6.210;2023-11-19T11:03:17;8.90;;;3.10;;
6141;SDS011;71289;51.552;6.210;2023-11-19T11:05:48;4.13;;;2.00;;
6141;SDS011;71289;51.552;6.210;2023-11-19T11:08:16;15.13;;;4.17;;
6141;SDS011;71289;51.552;6.210;2023-11-19T11:10:43;13.73;;;3.00;;
6141;SDS011;71289;51.552;6.210;2023-11-19T11:13:19;12.70;;;3.60;;
6141;SDS011;71289;51.552;6.210;2023-11-19T11:15:47;13.73;;;2.30;;
6141;SDS011;71289;51.552;6.210;2023-11-19T11:18:14;13.93;;;2.30;;
6141;SDS011;71289;51.552;6.210;2023-11-19T11:20:39;13.40;;;4.20;;
6141;SDS011;71289;51.552;6.210;2023-11-19T11:25:57;11.83;;;2.87;;
6141;SDS011;71289;51.552;6.210;2023-11-19T11:31:36;15.77;;;6.37;;
6141;SDS011;71289;51.552;6.210;2023-11-19T11:39:33;18.40;;;3.30;;
6141;SDS011;71289;51.552;6.210;2023-11-19T11:44:59;6.23;;;2.20;;
6141;SDS011;71289;51.552;6.210;2023-11-19T11:50:10;14.00;;;2.37;;
6141;SDS011;71289;51.552;6.210;2023-11-19T11:57:49;27.47;;;3.37;;
6141;SDS011;71289;51.552;6.210;2023-11-19T12:00:48;13.57;;;2.63;;
6141;SDS011;71289;51.552;6.210;2023-11-19T12:03:07;7.10;;;2.60;;
6141;SDS011;71289;51.552;6.210;2023-11-19T12:05:33;4.83;;;2.10;;
6141;SDS011;71289;51.552;6.210;2023-11-19T12:08:12;6.73;;;2.03;;
6141;SDS011;71289;51.552;6.210;2023-11-19T12:13:13;12.37;;;2.50;;
6141;SDS011;71289;51.552;6.210;2023-11-19T12:18:23;11.70;;;2.53;;
6141;SDS011;71289;51.552;6.210;2023-11-19T12:20:50;5.83;;;3.40;;
6141;SDS011;71289;51.552;6.210;2023-11-19T12:23:16;13.50;;;2.40;;
6141;SDS011;71289;51.552;6.210;2023-11-19T12:25:42;9.57;;;2.57;;
6141;SDS011;71289;51.552;6.210;2023-11-19T12:28:13;6.07;;;2.13;;
6141;SDS011;71289;51.552;6.210;2023-11-19T12:30:39;12.90;;;2.07;;
6141;SDS011;71289;51.552;6.210;2023-11-19T12:33:08;12.70;;;2.33;;
6141;SDS011;71289;51.552;6.210;2023-11-19T12:35:38;10.33;;;2.50;;
6141;SDS011;71289;51.552;6.210;2023-11-19T12:38:08;7.80;;;1.50;;
6141;SDS011;71289;51.552;6.210;2023-11-19T12:40:43;8.23;;;2.03;;
6141;SDS011;71289;51.552;6.210;2023-11-19T12:43:08;17.97;;;2.10;;
6141;SDS011;71289;51.552;6.210;2023-11-19T12:45:37;12.20;;;2.13;;
6141;SDS011;71289;51.552;6.210;2023-11-19T12:48:04;3.90;;;1.90;;
6141;SDS011;71289;51.552;6.210;2023-11-19T12:50:49;9.10;;;2.40;;
6141;SDS011;71289;51.552;6.210;2023-11-19T12:53:17;6.57;;;1.40;;
6141;SDS011;71289;51.552;6.210;2023-11-19T12:55:43;8.60;;;1.80;;
6141;SDS011;71289;51.552;6.210;2023-11-19T12:58:08;12.93;;;2.60;;
6141;SDS011;71289;51.552;6.210;2023-11-19T13:00:34;9.50;;;2.10;;
6141;SDS011;71289;51.552;6.210;2023-11-19T13:03:00;7.53;;;2.63;;
6141;SDS011;71289;51.552;6.210;2023-11-19T13:05:32;6.60;;;2.57;;
6141;SDS011;71289;51.552;6.210;2023-11-19T13:08:05;11.20;;;3.30;;
6141;SDS011;71289;51.552;6.210;2023-11-19T13:10:33;11.53;;;3.50;;
6141;SDS011;71289;51.552;6.210;2023-11-19T13:13:19;9.10;;;2.67;;
6141;SDS011;71289;51.552;6.210;2023-11-19T13:15:44;4.50;;;1.57;;
6141;SDS011;71289;51.552;6.210;2023-11-19T13:18:11;5.27;;;2.40;;
6141;SDS011;71289;51.552;6.210;2023-11-19T13:20:36;8.10;;;1.70;;
6141;SDS011;71289;51.552;6.210;2023-11-19T13:23:03;6.70;;;2.00;;
6141;SDS011;71289;51.552;6.210;2023-11-19T13:25:30;7.20;;;1.77;;
6141;SDS011;71289;51.552;6.210;2023-11-19T13:27:57;13.57;;;3.70;;
6141;SDS011;71289;51.552;6.210;2023-11-19T13:30:23;12.87;;;2.70;;
6141;SDS011;71289;51.552;6.210;2023-11-19T13:32:50;9.37;;;2.60;;
6141;SDS011;71289;51.552;6.210;2023-11-19T13:35:16;12.00;;;2.30;;
6141;SDS011;71289;51.552;6.210;2023-11-19T13:37:42;5.77;;;2.57;;
6141;SDS011;71289;51.552;6.210;2023-11-19T13:40:09;7.33;;;2.07;;
6141;SDS011;71289;51.552;6.210;2023-11-19T13:42:40;10.70;;;2.13;;
6141;SDS011;71289;51.552;6.210;2023-11-19T13:45:07;5.30;;;2.40;;
6141;SDS011;71289;51.552;6.210;2023-11-19T13:47:36;6.00;;;2.20;;
6141;SDS011;71289;51.552;6.210;2023-11-19T13:50:06;8.47;;;1.97;;
6141;SDS011;71289;51.552;6.210;2023-11-19T13:52:35;6.97;;;2.57;;
6141;SDS011;71289;51.552;6.210;2023-11-19T13:55:08;5.37;;;2.33;;
6141;SDS011;71289;51.552;6.210;2023-11-19T13:57:35;4.63;;;1.10;;
6141;SDS011;71289;51.552;6.210;2023-11-19T14:00:05;17.90;;;4.30;;
6141;SDS011;71289;51.552;6.210;2023-11-19T14:02:36;7.83;;;2.87;;
6141;SDS011;71289;51.552;6.210;2023-11-19T14:05:01;15.83;;;2.90;;
6141;SDS011;71289;51.552;6.210;2023-11-19T14:07:27;11.27;;;2.00;;
6141;SDS011;71289;51.552;6.210;2023-11-19T14:09:53;6.43;;;2.93;;
6141;SDS011;71289;51.552;6.210;2023-11-19T14:12:19;12.13;;;1.90;;
6141;SDS011;71289;51.552;6.210;2023-11-19T14:14:45;2.33;;;1.90;;
6141;SDS011;71289;51.552;6.210;2023-11-19T14:17:11;6.03;;;2.00;;
6141;SDS011;71289;51.552;6.210;2023-11-19T14:19:36;14.73;;;3.47;;
6141;SDS011;71289;51.552;6.210;2023-11-19T14:22:04;10.47;;;2.63;;
6141;SDS011;71289;51.552;6.210;2023-11-19T14:24:29;6.63;;;2.37;;
6141;SDS011;71289;51.552;6.210;2023-11-19T14:26:55;7.87;;;2.50;;
6141;SDS011;71289;51.552;6.210;2023-11-19T14:29:23;9.17;;;1.73;;
6141;SDS011;71289;51.552;6.210;2023-11-19T14:31:50;3.30;;;1.70;;
6141;SDS011;71289;51.552;6.210;2023-11-19T14:34:16;4.80;;;1.53;;
6141;SDS011;71289;51.552;6.210;2023-11-19T14:36:42;3.07;;;2.07;;
6141;SDS011;71289;51.552;6.210;2023-11-19T14:39:07;15.10;;;2.13;;
6141;SDS011;71289;51.552;6.210;2023-11-19T14:41:33;12.57;;;2.73;;
6141;SDS011;71289;51.552;6.210;2023-11-19T14:43:58;15.80;;;1.80;;
6141;SDS011;71289;51.552;6.210;2023-11-19T14:46:24;5.03;;;1.40;;
6141;SDS011;71289;51.552;6.210;2023-11-19T14:48:49;13.50;;;2.73;;
6141;SDS011;71289;51.552;6.210;2023-11-19T14:51:15;7.90;;;3.03;;
6141;SDS011;71289;51.552;6.210;2023-11-19T14:53:41;8.50;;;2.30;;
6141;SDS011;71289;51.552;6.210;2023-11-19T14:56:09;9.90;;;2.27;;
6141;SDS011;71289;51.552;6.210;2023-11-19T14:58:37;4.43;;;1.60;;
6141;SDS011;71289;51.552;6.210;2023-11-19T15:01:03;9.70;;;2.20;;
6141;SDS011;71289;51.552;6.210;2023-11-19T15:03:29;9.43;;;2.70;;
6141;SDS011;71289;51.552;6.210;2023-11-19T15:05:55;8.40;;;2.50;;
6141;SDS011;71289;51.552;6.210;2023-11-19T15:08:21;7.00;;;2.07;;
6141;SDS011;71289;51.552;6.210;2023-11-19T15:10:47;10.27;;;1.80;;
6141;SDS011;71289;51.552;6.210;2023-11-19T15:13:12;19.93;;;2.20;;
6141;SDS011;71289;51.552;6.210;2023-11-19T15:15:38;13.20;;;2.43;;
6141;SDS011;71289;51.552;6.210;2023-11-19T15:18:04;9.30;;;2.60;;
6141;SDS011;71289;51.552;6.210;2023-11-19T15:20:29;6.57;;;2.47;;
6141;SDS011;71289;51.552;6.210;2023-11-19T15:22:56;9.13;;;2.10;;